Date,TemperatureHighF,TemperatureAvgF,TemperatureLowF,DewpointHighF,DewpointAvgF,DewpointLowF,HumidityHigh,HumidityAvg,HumidityLow,PressureMaxIn,PressureMinIn,WindSpeedMaxMPH,WindSpeedAvgMPH,GustSpeedMaxMPH,PrecipitationSumIn
2012-1-1,54,44,32,44,38,30,97,78,58,30.03,29.63,18,1,18,0.00
2012-1-2,46,36,29,33,20,14,68,54,42,29.78,29.65,25,2,26,0.00
2012-1-3,29,24,15,20,10,-1,72,54,32,30.12,29.77,22,3,25,0.00
2012-1-4,26,19,10,14,4,-4,61,52,44,30.19,29.90,15,1,15,0.00
2012-1-5,39,30,24,24,19,14,82,63,50,29.91,29.82,20,1,20,0.00
2012-1-6,53,39,24,32,27,19,86,65,41,29.88,29.68,13,0,13,0.00
2012-1-7,63,46,30,40,31,23,84,57,34,29.93,29.65,20,1,20,0.00
2012-1-8,47,37,28,30,25,18,80,61,43,30.25,29.93,15,1,15,0.00
2012-1-9,42,33,25,22,19,12,82,59,31,30.26,29.92,8,0,8,0.00
2012-1-10,47,37,29,31,28,22,90,71,51,29.95,29.84,19,1,19,0.00
2012-1-11,48,37,24,41,29,22,95,75,48,30.02,29.63,19,2,19,0.00
2012-1-12,48,45,42,48,44,41,99,97,95,29.64,29.33,24,3,24,0.00
2012-1-13,48,34,28,47,25,12,99,71,48,29.80,29.17,32,3,32,0.00
2012-1-14,33,28,25,17,15,14,64,57,48,30.03,29.80,20,2,20,0.00
2012-1-15,26,21,14,17,6,1,73,54,37,30.52,30.02,18,2,18,0.00
2012-1-16,36,25,12,29,12,4,83,60,32,30.53,30.06,18,1,18,0.00
2012-1-17,54,42,34,46,39,29,97,88,74,30.08,29.49,21,1,21,0.00
2012-1-18,53,36,21,47,20,10,79,53,37,30.12,29.51,26,4,26,0.00
2012-1-19,34,26,15,22,14,8,77,60,43,30.17,29.87,12,1,12,0.00
2012-1-20,33,28,24,24,12,4,71,50,34,30.22,29.87,16,2,16,0.00
2012-1-21,28,25,23,22,19,7,90,79,41,30.26,29.89,11,2,11,0.00
2012-1-22,32,23,12,28,16,6,88,74,62,30.45,30.24,9,1,9,0.00
2012-1-23,48,38,31,48,37,28,99,97,88,30.31,29.81,18,1,18,0.00
2012-1-24,51,43,38,45,37,30,99,80,55,30.09,29.82,20,1,20,0.00
2012-1-25,45,39,34,31,28,25,81,66,54,30.26,30.08,13,1,13,0.00
2012-1-26,39,36,33,38,33,29,98,90,77,30.15,29.69,10,1,10,0.00
2012-1-27,58,47,39,58,42,28,100,84,59,29.83,29.30,29,4,29,0.00
2012-1-28,48,40,31,32,27,14,84,62,37,30.01,29.82,18,1,18,0.00
2012-1-29,44,36,27,29,16,11,84,43,31,30.14,29.95,24,2,24,0.00
2012-1-30,40,34,30,30,18,11,85,52,34,30.25,29.98,21,2,21,0.00
2012-1-31,62,44,29,33,27,16,80,53,31,30.16,29.94,16,1,16,0.00
2012-2-1,63,51,41,46,39,29,91,65,50,29.96,29.83,21,1,21,0.00
2012-2-2,47,40,35,38,30,22,83,68,55,30.20,29.90,21,2,21,0.00
2012-2-3,45,35,27,24,22,19,80,59,40,30.41,30.20,21,2,21,0.00
2012-2-4,41,34,24,29,25,21,89,70,52,30.29,30.03,7,0,7,0.00
2012-2-5,42,34,26,24,21,18,75,59,41,30.13,30.02,15,1,15,0.00
2012-2-6,51,38,22,31,25,18,86,60,39,30.12,29.93,15,1,15,0.00
2012-2-7,49,38,27,32,27,22,83,64,44,30.17,29.92,16,2,16,0.00
2012-2-8,37,32,30,29,25,21,94,76,55,30.22,30.03,10,0,10,0.00
2012-2-9,41,31,24,29,24,20,94,75,45,30.13,30.02,13,1,13,0.00
2012-2-10,42,33,22,31,24,18,91,69,48,30.08,29.84,11,0,11,0.00
2012-2-11,37,32,22,32,29,12,95,88,64,29.84,29.52,22,1,23,0.00
2012-2-12,30,24,16,16,11,5,66,58,48,29.95,29.69,26,5,26,0.00
2012-2-13,42,32,24,22,18,12,71,56,39,30.02,29.92,18,2,19,0.00
2012-2-14,51,39,29,37,25,15,83,59,27,30.03,29.89,11,1,11,0.00
2012-2-15,46,39,28,37,33,25,89,79,62,30.22,29.95,10,1,10,0.00
2012-2-16,41,36,27,40,33,25,98,91,82,30.23,29.93,6,0,6,0.00
2012-2-17,50,42,31,42,32,22,98,71,35,29.98,29.89,21,2,21,0.00
2012-2-18,50,39,26,37,25,19,85,59,35,30.03,29.78,19,1,20,0.00
2012-2-19,44,36,28,28,23,20,77,59,40,30.02,29.85,10,1,10,0.00
2012-2-20,45,35,27,23,19,13,65,51,34,30.27,29.90,21,3,21,0.00
2012-2-21,50,36,22,35,24,13,87,64,32,30.28,29.77,22,2,22,0.00
2012-2-22,59,46,32,38,33,24,96,64,27,29.77,29.36,24,1,24,0.00
2012-2-23,60,49,40,40,33,23,79,58,27,29.65,29.30,27,2,27,0.00
2012-2-24,47,40,38,42,38,26,100,90,51,29.57,29.31,23,4,23,0.00
2012-2-25,42,37,32,32,23,16,90,57,44,30.03,29.42,33,6,33,0.00
2012-2-26,44,35,28,22,18,12,73,51,35,30.37,30.03,19,2,19,0.00
2012-2-27,58,42,26,33,28,20,88,60,31,30.35,30.03,16,1,16,0.00
2012-2-28,51,42,32,28,23,20,69,49,31,30.34,30.11,20,2,20,0.00
2012-2-29,42,39,33,41,34,23,98,84,54,30.27,29.61,15,2,15,0.00
2012-3-1,47,42,36,43,38,30,100,87,66,29.89,29.55,18,2,18,0.00
2012-3-2,45,39,30,41,34,27,96,84,66,30.01,29.65,14,2,14,0.00
2012-3-3,56,47,41,48,36,19,99,70,25,29.65,29.43,23,2,26,0.00
2012-3-4,43,38,32,26,22,17,70,52,37,29.72,29.54,19,2,19,0.00
2012-3-5,44,34,26,23,17,7,72,49,30,30.34,29.72,16,2,16,0.00
2012-3-6,45,34,22,26,15,8,71,47,27,30.58,30.34,12,1,12,0.00
2012-3-7,63,48,30,44,33,25,89,59,27,30.50,30.24,16,2,16,0.00
2012-3-8,71,61,52,52,47,42,81,62,47,30.24,29.77,25,5,25,0.00
2012-3-9,65,44,35,52,28,14,87,54,30,30.23,29.76,27,4,27,0.00
2012-3-10,41,33,28,18,12,8,60,42,27,30.46,30.22,18,2,18,0.00
2012-3-11,60,35,26,33,21,14,71,58,30,30.47,30.29,16,1,16,0.00
2012-3-12,66,51,35,45,35,29,85,57,30,30.31,30.04,11,1,11,0.00
2012-3-13,75,62,52,58,52,45,98,74,50,30.04,29.84,16,1,16,0.00
2012-3-14,72,60,49,52,38,26,93,50,20,30.09,29.92,16,2,16,0.00
2012-3-15,56,49,44,46,41,32,95,75,58,30.22,30.08,19,3,19,0.00
2012-3-16,57,48,44,49,46,43,99,92,74,30.19,30.04,10,1,10,0.00
2012-3-17,68,54,42,52,47,41,99,79,52,30.27,30.11,11,1,11,0.00
2012-3-18,66,53,46,53,48,43,98,85,58,30.30,30.13,9,1,9,0.00
2012-3-19,76,60,45,57,50,44,99,74,40,30.15,30.07,9,1,12,0.00
2012-3-20,74,63,53,61,57,52,99,83,56,30.23,30.13,12,2,12,0.00
2012-3-21,69,61,57,59,57,55,99,88,66,30.27,30.18,8,0,8,0.00
2012-3-22,72,63,57,63,59,55,100,88,65,30.21,30.02,9,0,9,0.00
2012-3-23,78,63,51,63,54,43,100,74,48,30.03,29.93,11,2,13,0.00
2012-3-24,60,54,48,46,40,28,87,60,32,29.97,29.86,20,4,20,0.00
2012-3-25,58,49,44,48,45,43,96,87,67,29.86,29.66,12,2,12,0.00
2012-3-26,52,47,34,48,32,9,95,62,26,30.10,29.64,23,6,34,0.00
2012-3-27,51,39,29,23,11,3,56,32,18,30.27,30.09,19,2,19,0.00
2012-3-28,66,53,36,50,37,19,79,56,39,30.10,29.49,19,1,19,0.00
2012-3-29,60,51,40,50,36,28,79,57,47,29.96,29.52,23,4,23,0.00
2012-3-30,56,45,32,36,28,24,77,53,31,30.04,29.82,11,1,11,0.00
2012-3-31,47,41,40,41,39,36,97,93,64,29.90,29.74,12,2,12,0.00
2012-4-1,53,46,41,46,42,39,95,86,65,29.84,29.51,11,0,11,0.00
2012-4-2,56,47,40,46,29,14,96,55,24,29.84,29.50,20,5,21,0.00
2012-4-3,66,50,31,33,23,16,70,38,16,29.92,29.71,18,2,18,0.00
2012-4-4,70,57,46,43,33,23,77,43,21,29.72,29.45,23,3,23,0.00
2012-4-5,57,48,36,34,28,23,65,46,33,29.87,29.66,14,2,14,0.00
2012-4-6,57,45,34,31,23,15,65,43,23,29.99,29.85,19,3,19,0.00
2012-4-7,61,48,31,24,18,11,67,33,15,30.07,29.91,25,4,25,0.00
2012-4-8,68,52,32,36,25,14,68,37,19,29.98,29.63,31,3,31,0.00
2012-4-9,63,54,44,33,28,22,65,37,25,29.73,29.60,30,4,30,0.00
2012-4-10,59,49,38,38,30,23,85,51,27,29.77,29.62,19,2,19,0.00
2012-4-11,51,43,32,38,32,26,89,66,42,29.87,29.74,15,2,16,0.00
2012-4-12,58,48,39,38,32,25,79,56,31,30.08,29.87,18,2,18,0.00
2012-4-13,63,50,33,36,30,26,82,48,26,30.17,30.07,13,1,13,0.00
2012-4-14,71,57,38,42,34,29,75,46,24,30.16,29.96,15,1,15,0.00
2012-4-15,78,65,55,59,53,41,95,66,45,29.98,29.89,12,1,16,0.00
2012-4-16,88,71,54,61,56,51,95,62,32,29.96,29.83,15,1,15,0.00
2012-4-17,76,68,55,57,44,30,78,45,22,30.09,29.84,14,2,14,0.00
2012-4-18,59,53,47,47,37,30,93,56,41,30.21,30.06,10,1,10,0.00
2012-4-19,69,54,47,53,46,40,98,79,36,30.06,29.91,10,0,10,0.00
2012-4-20,73,59,43,57,51,42,99,75,48,29.96,29.76,14,1,14,0.00
2012-4-21,78,64,52,59,56,48,99,77,46,29.76,29.54,15,2,15,0.00
2012-4-22,52,48,44,49,45,42,94,90,81,29.71,29.22,18,2,18,0.00
2012-4-23,47,44,40,44,40,35,98,88,69,29.35,29.09,16,2,18,0.00
2012-4-24,60,48,37,36,31,23,85,56,27,29.65,29.34,25,2,25,0.00
2012-4-25,64,49,34,39,33,27,94,58,28,29.82,29.64,14,1,14,0.00
2012-4-26,63,52,38,56,45,33,95,78,68,29.84,29.52,7,0,11,0.00
2012-4-27,58,48,36,56,34,26,96,58,41,30.09,29.53,22,3,22,0.00
2012-4-28,55,44,31,33,28,24,84,56,31,30.21,30.05,12,1,12,0.00
2012-4-29,64,51,33,35,27,20,89,45,19,30.18,30.02,18,1,18,0.00
2012-4-30,65,50,31,41,30,19,82,48,25,30.27,30.08,12,1,12,0.00
2012-5-1,75,60,50,62,53,40,98,78,53,30.08,29.89,12,1,12,0.00
2012-5-2,61,53,51,57,51,49,96,92,85,30.08,29.95,11,2,11,0.00
2012-5-3,62,56,50,58,54,49,99,93,83,30.12,29.97,7,0,7,0.00
2012-5-4,83,66,56,67,61,56,99,86,54,30.00,29.75,12,1,12,0.00
2012-5-5,70,64,60,62,60,57,99,87,70,29.90,29.75,12,2,12,0.00
2012-5-6,68,60,51,56,53,45,94,79,59,30.03,29.94,4,1,9,0.00
2012-5-7,64,56,48,55,50,44,93,81,64,30.05,29.98,9,0,9,0.00
2012-5-8,69,62,56,59,54,46,91,76,59,29.99,29.73,15,2,15,0.00
2012-5-9,74,66,56,66,58,49,99,79,50,29.73,29.53,10,0,10,0.00
2012-5-10,65,57,47,54,45,35,97,68,35,29.80,29.46,23,2,23,0.00
2012-5-11,71,56,40,43,39,33,95,58,26,30.05,29.80,19,1,19,0.00
2012-5-12,79,62,43,50,45,39,91,57,30,30.18,30.05,13,1,13,0.00
2012-5-13,81,68,53,58,53,46,86,62,34,30.12,30.01,12,1,13,0.00
2012-5-14,69,64,61,63,59,53,97,85,63,30.07,29.99,11,0,11,0.00
2012-5-15,75,66,61,67,63,60,99,92,69,30.01,29.82,15,0,15,0.00
2012-5-16,81,69,62,67,62,53,99,80,42,29.87,29.75,11,1,11,0.00
2012-5-17,74,62,51,57,45,38,84,55,29,30.06,29.83,9,1,13,0.00
2012-5-18,75,61,45,51,45,41,91,59,33,30.14,30.06,12,1,12,0.00
2012-5-19,83,64,45,57,48,42,96,60,28,30.10,30.01,7,0,9,0.00
2012-5-20,81,67,49,61,50,41,90,60,24,30.13,30.06,16,2,18,0.00
2012-5-21,66,62,60,63,61,59,99,96,90,30.09,29.88,13,2,13,0.00
2012-5-22,78,67,61,66,63,61,99,88,64,29.89,29.72,6,0,6,0.00
2012-5-23,83,72,62,68,64,61,98,79,52,29.93,29.77,12,0,12,0.00
2012-5-24,82,69,65,69,65,62,97,88,54,30.08,29.93,16,1,16,0.00
2012-5-25,83,70,63,71,66,63,100,87,59,30.10,30.02,8,1,8,0.00
2012-5-26,85,72,64,73,68,64,99,88,65,30.08,29.99,10,0,10,0.00
2012-5-27,82,71,66,74,69,66,100,95,73,30.08,30.03,6,0,6,0.00
2012-5-28,89,78,64,73,68,63,96,74,49,29.94,29.83,9,1,11,0.00
2012-5-29,91,79,68,74,70,64,98,77,50,29.84,29.64,15,1,15,0.00
2012-5-30,82,73,67,69,67,59,100,84,49,29.72,29.63,7,0,7,0.00
2012-5-31,80,71,59,67,57,48,98,65,34,29.85,29.62,11,1,11,0.00
2012-6-1,74,65,55,69,57,50,99,77,59,29.88,29.60,24,3,24,0.00
2012-6-2,71,64,54,69,55,47,99,74,45,29.72,29.58,18,1,18,0.00
2012-6-3,74,64,50,60,54,48,98,72,45,29.72,29.59,14,1,19,0.00
2012-6-4,71,62,53,59,55,51,99,81,59,29.73,29.52,12,0,12,0.00
2012-6-5,67,58,47,52,49,45,95,74,52,29.87,29.72,9,0,9,0.00
2012-6-6,74,61,46,56,51,45,98,72,43,29.92,29.86,11,0,11,0.00
2012-6-7,78,64,54,61,55,50,96,76,39,29.90,29.83,14,0,14,0.00
2012-6-8,82,68,52,60,54,49,99,67,33,29.89,29.78,13,0,13,0.00
2012-6-9,83,70,56,64,58,53,93,68,39,29.91,29.81,12,0,12,0.00
2012-6-10,92,77,63,67,63,59,92,65,35,30.06,29.90,12,0,12,0.00
2012-6-11,82,74,65,70,64,60,93,73,62,30.13,30.04,18,2,18,0.00
2012-6-12,71,67,66,68,65,61,98,93,77,30.06,29.76,10,0,11,0.00
2012-6-13,79,70,62,67,59,51,99,70,48,29.98,29.76,11,2,16,0.00
2012-6-14,80,69,60,63,59,54,95,72,47,30.17,29.98,13,1,13,0.00
2012-6-15,82,68,55,64,57,51,99,72,44,30.21,30.15,12,0,12,0.00
2012-6-16,82,68,53,60,53,49,97,64,36,30.26,30.13,11,1,11,0.00
2012-6-17,76,66,56,61,56,52,92,73,51,30.15,29.97,9,0,9,0.00
2012-6-18,72,63,52,60,56,50,98,78,60,30.06,29.99,7,0,7,0.00
2012-6-19,80,71,64,69,64,58,93,79,66,30.08,30.00,10,0,10,0.00
2012-6-20,95,81,67,75,70,65,97,72,43,30.03,29.89,11,1,11,0.00
2012-6-21,95,83,70,74,70,66,95,68,40,29.90,29.73,12,1,12,0.00
2012-6-22,93,80,71,75,71,65,96,76,41,29.76,29.66,12,0,12,0.00
2012-6-23,86,75,63,70,60,52,98,65,35,29.91,29.75,14,1,14,0.00
2012-6-24,86,74,58,66,59,53,95,64,34,29.94,29.80,8,0,8,0.00
2012-6-25,81,71,61,67,59,47,94,68,39,29.80,29.59,13,1,14,0.00
2012-6-26,77,65,53,54,49,45,81,58,34,29.74,29.65,20,2,20,0.00
2012-6-27,84,69,51,57,51,48,91,58,30,29.79,29.69,22,2,22,0.00
2012-6-28,90,75,57,64,58,54,90,59,30,29.80,29.66,15,1,15,0.00
2012-6-29,96,81,68,76,69,62,96,71,43,29.66,29.54,15,1,15,0.00
2012-6-30,92,81,69,72,66,59,95,64,34,29.74,29.61,13,1,13,0.00
2012-7-1,94,81,66,73,66,58,97,65,39,29.80,29.70,15,1,15,0.00
2012-7-2,89,78,64,65,58,50,88,54,28,29.86,29.79,14,1,14,0.00
2012-7-3,93,78,61,65,60,53,94,58,28,29.89,29.76,10,0,10,0.00
2012-7-4,94,82,70,72,68,63,93,65,40,29.80,29.67,18,1,21,0.00
2012-7-5,95,86,72,77,66,55,99,54,32,29.78,29.67,12,1,12,0.00
2012-7-6,97,81,60,70,60,42,93,54,18,29.87,29.78,9,0,9,0.00
2012-7-7,99,83,72,74,70,65,96,69,34,29.81,29.70,25,1,25,0.00
2012-7-8,92,80,71,72,69,64,97,72,42,29.81,29.73,8,0,8,0.00
2012-7-9,89,78,70,64,60,56,79,56,35,29.89,29.78,9,0,9,0.00
2012-7-10,91,77,67,65,60,52,85,58,28,30.00,29.89,10,1,10,0.00
2012-7-11,92,77,63,68,62,53,97,64,31,30.09,29.99,12,1,12,0.00
2012-7-12,91,77,62,65,60,55,95,59,32,30.12,30.05,11,1,11,0.00
2012-7-13,89,77,65,66,63,59,91,64,38,30.14,30.08,9,0,9,0.00
2012-7-14,81,74,68,69,65,58,97,76,51,30.15,30.07,12,1,12,0.00
2012-7-15,91,77,69,78,71,67,97,83,52,30.08,29.87,19,0,19,0.00
2012-7-16,90,78,67,73,70,67,99,78,48,29.90,29.74,11,1,11,0.00
2012-7-17,95,82,67,71,68,63,98,66,37,29.80,29.70,18,1,18,0.00
2012-7-18,99,82,74,77,72,68,98,75,41,29.81,29.69,13,1,13,0.00
2012-7-19,78,75,70,74,70,64,99,85,68,29.90,29.79,10,1,10,0.00
2012-7-20,70,66,62,67,64,60,98,94,85,29.97,29.79,16,3,16,0.00
2012-7-21,79,70,62,63,60,57,95,73,49,30.05,29.95,10,1,10,0.00
2012-7-22,83,73,63,68,64,60,95,77,53,30.10,30.02,10,0,10,0.00
2012-7-23,90,76,66,74,69,65,98,82,52,30.05,29.76,16,1,16,0.00
2012-7-24,94,81,69,75,67,57,99,68,31,29.76,29.53,20,1,20,0.00
2012-7-25,86,74,62,60,56,52,81,55,34,29.86,29.70,11,1,11,0.00
2012-7-26,92,74,62,76,67,58,98,80,51,29.75,29.57,18,1,18,0.00
2012-7-27,88,78,70,74,71,67,99,80,54,29.80,29.62,12,1,12,0.00
2012-7-28,90,77,68,75,70,66,98,81,54,29.89,29.78,13,1,13,0.00
2012-7-29,84,72,66,72,68,65,99,87,56,29.97,29.84,7,0,7,0.00
2012-7-30,88,75,66,71,67,64,99,78,47,30.03,29.95,10,1,10,0.00
2012-7-31,84,74,65,69,66,63,98,78,54,30.00,29.82,11,1,11,0.00
2012-8-1,84,73,66,74,68,65,98,85,61,29.85,29.76,10,0,10,0.00
2012-8-2,90,76,64,73,67,63,99,76,45,29.86,29.77,10,0,10,0.00
2012-8-3,93,79,68,76,70,67,99,77,44,30.01,29.85,10,0,10,0.00
2012-8-4,92,79,70,76,72,68,99,79,52,30.11,30.01,10,0,10,0.00
2012-8-5,94,80,72,76,72,65,99,81,45,30.09,29.90,26,2,26,0.00
2012-8-6,87,77,65,75,68,60,100,77,43,29.97,29.89,11,0,11,0.00
2012-8-7,84,73,60,67,63,59,98,74,47,29.94,29.88,9,0,11,0.00
2012-8-8,90,76,65,74,67,63,98,76,42,29.92,29.84,6,0,6,0.00
2012-8-9,92,75,66,74,69,64,99,84,48,29.88,29.78,20,0,20,0.00
2012-8-10,86,76,70,77,73,68,98,90,69,29.79,29.66,9,0,9,0.00
2012-8-11,88,79,71,79,73,66,100,83,53,29.84,29.70,12,1,12,0.00
2012-8-12,84,73,63,69,64,59,98,77,46,29.90,29.81,14,1,14,0.00
2012-8-13,84,72,60,65,61,57,98,73,40,29.96,29.88,12,0,12,0.00
2012-8-14,79,70,63,72,67,61,98,92,72,29.91,29.78,10,0,10,0.00
2012-8-15,85,74,66,71,68,66,99,83,58,29.81,29.74,9,0,9,0.00
2012-8-16,84,72,63,67,62,54,96,73,39,29.87,29.78,13,1,13,0.00
2012-8-17,88,73,61,69,64,60,98,76,45,29.83,29.70,14,1,14,0.00
2012-8-18,79,69,59,67,62,56,99,79,49,29.86,29.76,10,0,10,0.00
2012-8-19,74,64,54,63,59,53,98,83,60,29.91,29.84,6,0,6,0.00
2012-8-20,81,69,59,64,60,58,98,77,50,29.87,29.77,7,0,7,0.00
2012-8-21,83,69,60,64,60,56,98,76,43,30.01,29.87,7,0,7,0.00
2012-8-22,85,70,59,66,60,53,98,73,36,30.07,30.00,7,0,7,0.00
2012-8-23,87,73,62,67,62,55,98,73,35,30.09,30.03,8,0,8,0.00
2012-8-24,88,74,62,67,63,57,98,72,36,30.10,30.05,6,0,6,0.00
2012-8-25,81,72,65,69,66,62,97,80,54,30.17,30.10,11,1,11,0.00
2012-8-26,86,74,64,67,64,62,95,75,49,30.22,30.12,12,1,12,0.00
2012-8-27,86,75,67,74,69,65,99,84,55,30.14,29.88,8,0,9,0.00
2012-8-28,86,76,67,73,67,59,97,77,44,29.88,29.76,15,1,15,0.00
2012-8-29,80,69,60,62,58,55,93,71,45,29.94,29.84,13,0,13,0.00
2012-8-30,60,57,55,56,55,54,96,93,88,29.98,29.94,0,0,0,0.00
2012-8-31,90,72,58,69,62,57,98,73,37,30.00,29.86,4,1,14,0.00
2012-9-1,90,75,66,70,65,59,94,73,38,29.96,29.87,3,0,10,0.00
2012-9-2,79,73,69,72,70,66,97,91,74,29.99,29.92,3,0,8,0.00
2012-9-3,73,70,69,72,70,69,99,98,95,30.03,29.97,10,1,11,0.00
2012-9-4,83,75,70,76,73,70,99,94,75,29.99,29.76,10,0,10,0.00
2012-9-5,83,76,65,74,71,63,97,85,68,29.78,29.70,11,1,11,0.00
2012-9-6,80,70,62,70,66,61,99,87,64,29.83,29.77,6,0,6,0.00
2012-9-7,88,76,66,74,69,66,99,82,51,29.86,29.75,9,0,9,0.00
2012-9-8,86,74,66,73,69,65,97,86,60,29.78,29.51,21,1,21,0.00
2012-9-9,78,66,57,62,57,52,98,76,43,29.84,29.72,9,0,9,0.00
2012-9-10,73,62,52,55,50,45,84,66,40,30.08,29.84,16,1,16,0.00
2012-9-11,75,59,45,54,48,43,97,72,36,30.21,30.08,10,0,10,0.00
2012-9-12,80,63,48,58,53,48,99,74,37,30.29,30.21,8,0,8,0.00
2012-9-13,81,64,52,61,56,50,99,78,46,30.30,30.19,12,0,12,0.00
2012-9-14,80,66,53,63,57,52,99,77,42,30.21,30.03,10,0,10,0.00
2012-9-15,74,63,52,62,52,48,96,71,45,30.10,30.00,5,1,18,0.00
2012-9-16,73,59,49,54,50,46,98,74,41,30.06,29.97,13,0,13,0.00
2012-9-17,78,62,47,62,52,46,98,71,35,30.05,29.91,10,0,10,0.00
2012-9-18,77,70,66,71,67,62,99,91,77,29.91,29.50,24,2,24,0.00
2012-9-19,70,60,48,66,51,43,99,75,42,30.10,29.67,16,1,16,0.00
2012-9-20,72,56,45,55,48,44,99,77,44,30.12,30.00,9,1,9,0.00
2012-9-21,77,64,55,63,57,54,99,81,53,30.02,29.92,10,1,10,0.00
2012-9-22,82,68,56,67,60,54,99,80,53,29.93,29.69,13,1,13,0.00
2012-9-23,68,58,47,60,46,40,91,66,43,30.06,29.79,15,1,15,0.00
2012-9-24,65,53,44,49,43,38,97,73,39,30.12,30.03,12,1,12,0.00
2012-9-25,73,57,40,53,47,39,98,72,42,30.13,30.03,15,1,15,0.00
2012-9-26,76,67,61,64,60,53,91,76,61,30.04,29.94,14,1,14,0.00
2012-9-27,75,66,62,66,62,60,98,87,63,30.09,29.97,5,0,5,0.00
2012-9-28,77,68,63,68,63,56,99,84,66,30.05,29.85,11,0,11,0.00
2012-9-29,63,59,55,57,53,50,88,80,65,29.88,29.81,10,0,10,0.00
2012-9-30,68,56,49,54,50,48,98,83,51,29.82,29.72,7,0,12,0.00
2012-10-1,71,57,45,54,49,44,98,77,44,29.89,29.77,11,1,11,0.00
2012-10-2,64,61,58,63,59,54,99,94,86,29.91,29.85,6,0,7,0.00
2012-10-3,75,67,63,74,66,63,100,97,86,30.04,29.89,8,0,8,0.00
2012-10-4,75,68,60,72,66,58,100,94,74,30.05,29.96,9,0,9,0.00
2012-10-5,79,65,54,62,58,54,100,82,48,30.02,29.85,6,0,10,0.00
2012-10-6,73,61,47,63,54,42,99,80,61,29.93,29.73,15,1,15,0.00
2012-10-7,51,48,41,47,43,38,95,84,68,30.05,29.92,4,0,4,0.00
2012-10-8,52,46,38,46,42,37,98,88,69,30.21,30.04,6,0,6,0.00
2012-10-9,57,52,46,54,49,42,97,89,77,30.15,29.97,8,0,8,0.00
2012-10-10,66,58,51,58,51,38,99,81,54,29.97,29.75,20,1,20,0.00
2012-10-11,60,50,42,40,36,32,84,61,37,30.16,29.93,13,1,13,0.00
2012-10-12,60,46,37,43,35,27,97,69,36,30.35,30.01,15,1,15,0.00
2012-10-13,57,42,28,38,28,21,93,63,27,30.45,30.22,9,0,9,0.00
2012-10-14,74,59,41,54,48,38,89,70,43,30.23,29.84,15,1,15,0.00
2012-10-15,68,62,54,62,58,54,98,88,72,29.85,29.57,14,1,14,0.00
2012-10-16,61,51,40,54,42,38,98,71,46,29.84,29.62,18,1,18,0.00
2012-10-17,64,48,35,45,40,34,98,79,46,29.94,29.83,8,0,8,0.00
2012-10-18,71,56,42,58,49,39,98,81,49,29.93,29.77,16,2,16,0.00
2012-10-19,71,65,60,66,63,58,98,93,82,29.78,29.54,12,1,12,0.00
2012-10-20,64,55,46,59,48,42,99,79,48,29.77,29.57,14,1,14,0.00
2012-10-21,67,49,40,46,42,38,96,78,40,29.99,29.77,14,1,16,0.00
2012-10-22,69,52,40,46,42,38,96,71,38,30.07,29.97,13,1,13,0.00
2012-10-23,70,55,44,57,50,42,93,82,61,30.06,29.97,5,0,5,0.00
2012-10-24,74,60,52,60,55,50,96,84,59,30.09,29.98,9,1,9,0.00
2012-10-25,60,58,56,58,57,56,98,96,92,30.16,30.09,9,1,9,0.00
2012-10-26,64,60,57,58,57,56,97,89,76,30.14,30.00,6,0,6,0.00
2012-10-27,60,59,58,58,56,54,93,90,82,30.01,29.92,8,0,8,0.00
2012-10-28,57,55,51,53,49,45,91,81,73,29.81,29.53,13,2,18,0.00
2012-10-29,60,55,51,58,50,45,96,86,72,29.54,28.20,49,9,49,0.00
2012-10-30,50,45,41,48,42,39,93,90,78,29.38,28.53,14,2,35,0.00
2012-10-31,47,43,40,40,39,36,95,84,72,29.51,29.38,5,0,14,0.00
2012-11-1,50,44,39,40,38,35,88,78,66,29.57,29.49,14,1,14,0.00
2012-11-2,50,45,40,39,35,31,80,70,57,29.74,29.57,15,1,15,0.00
2012-11-3,47,43,40,34,30,28,75,60,51,29.92,29.74,16,1,18,0.00
2012-11-4,45,40,31,33,29,26,84,64,56,29.95,29.90,14,1,14,0.00
2012-11-5,45,39,33,29,26,21,67,60,50,30.11,29.92,14,1,14,0.00
2012-11-6,43,33,22,26,22,18,84,64,46,30.15,29.97,9,0,9,0.00
2012-11-7,40,36,33,32,27,20,92,72,54,29.97,29.74,21,2,21,0.00
2012-11-8,50,41,34,30,22,17,84,48,28,29.91,29.72,21,2,21,0.00
2012-11-9,54,42,29,32,28,21,84,59,40,30.15,29.91,15,1,15,0.00
2012-11-10,56,43,31,42,35,28,93,74,51,30.32,30.15,6,0,6,0.00
2012-11-11,69,51,40,51,43,36,99,76,39,30.40,30.31,9,1,9,0.00
2012-11-12,69,55,41,58,50,39,99,82,59,30.36,30.06,16,2,16,0.00
2012-11-13,62,45,35,58,38,25,93,79,59,30.38,30.03,18,2,18,0.00
2012-11-14,48,38,29,28,25,22,77,61,40,30.45,30.36,12,1,12,0.00
2012-11-15,47,36,30,32,26,22,82,66,45,30.39,30.22,10,1,10,0.00
2012-11-16,49,38,30,30,27,23,86,67,43,30.36,30.22,10,0,10,0.00
2012-11-17,54,40,28,34,28,22,84,63,43,30.55,30.36,13,1,13,0.00
2012-11-18,51,37,30,36,31,26,89,78,50,30.57,30.46,11,1,11,0.00
2012-11-19,53,43,35,40,35,31,87,74,57,30.46,30.15,11,1,11,0.00
2012-11-20,51,41,32,37,33,29,93,73,52,30.15,30.03,8,0,8,0.00
2012-11-21,56,40,29,36,29,24,92,67,35,30.15,30.06,9,1,9,0.00
2012-11-22,58,40,27,40,32,23,89,73,45,30.19,30.05,8,0,8,0.00
2012-11-23,60,44,28,42,35,26,98,74,41,30.05,29.63,12,1,12,0.00
2012-11-24,48,38,37,34,24,23,58,57,50,29.69,29.63,21,1,21,0.00
2012-11-25,38,35,25,23,22,19,78,59,50,29.91,29.68,10,2,20,0.00
2012-11-26,48,34,23,28,22,18,85,64,37,30.17,29.91,15,1,15,0.00
2012-11-27,36,34,30,32,30,24,93,88,73,30.19,30.11,7,0,7,0.00
2012-11-28,39,33,25,32,26,21,93,77,54,30.24,30.12,16,1,16,0.00
2012-11-29,43,32,23,28,23,19,87,72,51,30.33,30.22,19,1,19,0.00
2012-11-30,45,34,24,37,27,20,90,75,50,30.32,30.24,8,0,8,0.00
2012-12-1,44,39,36,38,34,32,95,84,78,30.40,30.31,11,2,11,0.00
2012-12-2,50,44,38,47,42,38,99,93,80,30.33,30.05,9,0,9,0.00
2012-12-3,65,52,42,52,48,42,99,86,60,30.16,30.03,11,1,11,0.00
2012-12-4,67,57,49,55,51,47,94,82,65,30.16,29.87,9,1,9,0.00
2012-12-5,58,49,33,52,36,19,86,62,45,30.19,29.84,22,3,22,0.00
2012-12-6,42,32,25,22,19,17,74,59,40,30.30,30.18,9,0,10,0.00
2012-12-7,40,34,26,39,32,20,97,90,73,30.20,29.92,5,0,5,0.00
2012-12-8,49,45,40,48,44,39,99,98,96,29.93,29.80,8,0,8,0.00
2012-12-9,48,43,40,47,42,37,99,95,86,30.15,29.90,13,1,13,0.00
2012-12-10,57,50,42,57,50,42,100,99,98,29.91,29.47,10,0,10,0.00
2012-12-11,56,43,32,56,36,27,100,76,53,30.12,29.49,16,2,16,0.00
2012-12-12,43,35,28,29,26,25,91,73,52,30.36,30.12,9,0,9,0.00
2012-12-13,46,35,26,28,24,22,87,65,42,30.38,30.25,10,1,10,0.00
2012-12-14,49,34,22,28,24,20,91,70,38,30.25,30.10,12,2,12,0.00
2012-12-15,48,37,27,35,29,23,90,75,51,30.24,30.07,8,0,8,0.00
2012-12-16,50,45,40,46,41,35,97,88,80,30.10,29.79,9,1,9,0.00
2012-12-17,44,42,40,44,42,40,99,98,97,29.80,29.48,11,2,11,0.00
2012-12-18,55,46,39,50,41,29,99,85,67,29.62,29.39,19,4,21,0.00
2012-12-19,48,40,32,33,29,26,79,64,52,30.07,29.61,20,3,20,0.00
2012-12-20,43,36,28,42,30,24,96,79,63,30.13,29.53,21,2,21,0.00
2012-12-21,56,42,34,55,36,26,100,79,61,29.56,29.06,26,8,26,0.00
2012-12-22,40,36,33,30,24,21,89,62,50,29.81,29.31,32,7,32,0.00
2012-12-23,44,35,28,23,21,14,76,58,31,29.92,29.78,18,4,18,0.00
2012-12-24,39,32,22,31,24,18,95,75,54,30.00,29.81,8,0,8,0.00
2012-12-25,39,34,31,34,30,23,97,84,70,30.17,29.80,14,1,14,0.00
2012-12-26,37,31,26,35,26,21,94,84,72,30.19,29.30,30,4,30,0.00
2012-12-27,40,35,32,36,28,21,93,77,62,29.82,29.22,26,6,26,0.00
2012-12-28,39,32,25,26,22,20,82,67,57,30.02,29.82,20,2,20,0.00
2012-12-29,32,29,26,30,25,21,92,85,75,29.96,29.44,15,1,15,0.00
2012-12-30,36,32,25,23,18,14,75,58,48,30.14,29.58,27,5,27,0.00
2012-12-31,40,32,26,28,21,15,73,64,56,30.15,29.83,16,4,16,0.00
2013-1-1,40,36,27,29,26,16,74,68,59,29.94,29.78,16,2,16,0.00